Time;durP1;ratioP1;P1;durP2;ratioP2;P2;SDS_P1;SDS_P2;PMS_P1;PMS_P2;Temp;Humidity;BMP_temperature;BMP_pressure;BME280_temperature;BME280_humidity;BME280_pressure;Samples;Min_cycle;Max_cycle;Signal;HPM_P1;HPM_P2
2022/05/29 00:01:24;;;;;;;4.13;2.83;;;;;;;;;;5117192;28;20958;-70
2022/05/29 00:03:51;;;;;;;3.20;2.87;;;;;;;;;;5117072;28;20453;-71
2022/05/29 00:06:18;;;;;;;6.87;2.90;;;;;;;;;;5117043;27;20452;-70
2022/05/29 00:08:46;;;;;;;3.63;2.40;;;;;;;;;;5117117;28;20461;-70
2022/05/29 00:11:15;;;;;;;6.20;2.53;;;;;;;;;;5116947;28;20829;-70
2022/05/29 00:13:42;;;;;;;2.73;2.53;;;;;;;;;;5116721;28;20453;-71
2022/05/29 00:16:10;;;;;;;10.60;3.07;;;;;;;;;;5116779;27;20990;-71
2022/05/29 00:18:38;;;;;;;4.43;2.90;;;;;;;;;;5116855;28;20449;-71
2022/05/29 00:21:06;;;;;;;3.20;2.40;;;;;;;;;;5116788;28;20560;-70
2022/05/29 00:23:36;;;;;;;4.10;3.20;;;;;;;;;;5116789;28;20797;-71
2022/05/29 00:26:04;;;;;;;3.67;2.40;;;;;;;;;;5116766;28;20441;-70
2022/05/29 00:28:32;;;;;;;3.30;2.67;;;;;;;;;;5116903;28;20472;-70
2022/05/29 00:30:59;;;;;;;4.30;2.67;;;;;;;;;;5116581;27;20485;-70
2022/05/29 00:33:26;;;;;;;3.80;2.50;;;;;;;;;;5116498;28;20438;-70
2022/05/29 00:35:54;;;;;;;3.50;2.60;;;;;;;;;;5116462;28;20851;-70
2022/05/29 00:38:21;;;;;;;4.70;2.33;;;;;;;;;;5116508;28;20946;-70
2022/05/29 00:40:52;;;;;;;6.67;2.57;;;;;;;;;;5116614;28;20461;-70
2022/05/29 00:43:19;;;;;;;7.20;3.00;;;;;;;;;;5116310;28;20465;-70
2022/05/29 00:45:50;;;;;;;3.30;2.70;;;;;;;;;;5116123;28;20441;-70
2022/05/29 00:48:18;;;;;;;6.20;2.97;;;;;;;;;;5116306;28;20453;-70
2022/05/29 00:50:45;;;;;;;6.10;3.10;;;;;;;;;;5116354;28;20474;-70
2022/05/29 00:53:14;;;;;;;4.23;2.50;;;;;;;;;;5116052;28;20807;-70
2022/05/29 00:55:42;;;;;;;4.47;3.50;;;;;;;;;;5115961;28;20485;-70
2022/05/29 00:58:09;;;;;;;5.27;3.00;;;;;;;;;;5116227;28;20456;-70
2022/05/29 01:00:36;;;;;;;8.53;2.80;;;;;;;;;;5116008;28;20473;-70
2022/05/29 01:03:05;;;;;;;3.43;2.90;;;;;;;;;;5116055;28;20935;-70
2022/05/29 01:05:34;;;;;;;4.80;2.70;;;;;;;;;;5115950;28;20433;-70
2022/05/29 01:08:04;;;;;;;5.67;3.20;;;;;;;;;;5115939;28;20947;-70
2022/05/29 01:10:34;;;;;;;3.73;3.30;;;;;;;;;;5115948;28;20477;-70
2022/05/29 01:13:06;;;;;;;3.50;2.73;;;;;;;;;;5115870;28;20450;-70
2022/05/29 01:15:37;;;;;;;7.80;3.30;;;;;;;;;;5115740;28;20555;-70
2022/05/29 01:18:12;;;;;;;5.10;2.87;;;;;;;;;;5115840;28;20930;-70
2022/05/29 01:20:44;;;;;;;4.50;3.23;;;;;;;;;;5115640;28;20463;-70
2022/05/29 01:23:25;;;;;;;4.57;2.83;;;;;;;;;;5115626;28;20449;-70
2022/05/29 01:26:10;;;;;;;3.40;2.83;;;;;;;;;;5115508;27;20476;-71
2022/05/29 01:28:45;;;;;;;3.53;2.77;;;;;;;;;;5115656;28;20448;-70
2022/05/29 01:31:14;;;;;;;5.03;3.53;;;;;;;;;;5115685;28;20472;-70
2022/05/29 01:33:43;;;;;;;7.60;3.30;;;;;;;;;;5115401;28;20446;-71
2022/05/29 01:36:13;;;;;;;3.53;3.20;;;;;;;;;;5115298;28;20489;-71
2022/05/29 01:38:42;;;;;;;3.03;2.70;;;;;;;;;;5115637;28;20453;-71
2022/05/29 01:41:14;;;;;;;4.23;2.63;;;;;;;;;;5115405;28;20825;-71
2022/05/29 01:43:44;;;;;;;7.67;2.73;;;;;;;;;;5115267;28;20461;-71
2022/05/29 01:46:13;;;;;;;3.13;2.83;;;;;;;;;;5115206;27;20445;-71
2022/05/29 01:48:45;;;;;;;5.30;2.90;;;;;;;;;;5115260;28;20446;-71
2022/05/29 01:51:15;;;;;;;3.50;2.63;;;;;;;;;;5115158;28;20461;-71
2022/05/29 01:53:44;;;;;;;4.00;3.20;;;;;;;;;;5115055;28;20446;-71
2022/05/29 01:56:15;;;;;;;3.90;2.90;;;;;;;;;;5114925;27;20481;-71
2022/05/29 01:58:46;;;;;;;3.13;2.83;;;;;;;;;;5115110;28;20450;-71
2022/05/29 02:01:13;;;;;;;4.73;2.33;;;;;;;;;;5114829;27;20473;-71
2022/05/29 02:03:44;;;;;;;2.97;2.60;;;;;;;;;;5114669;28;20449;-71
2022/05/29 02:06:13;;;;;;;3.63;3.30;;;;;;;;;;5114062;27;20453;-71
2022/05/29 02:08:44;;;;;;;6.60;4.70;;;;;;;;;;5114888;28;20935;-71
2022/05/29 02:11:13;;;;;;;12.00;3.30;;;;;;;;;;5114543;28;20470;-70
2022/05/29 02:13:43;;;;;;;5.13;3.30;;;;;;;;;;5114456;28;20457;-71
2022/05/29 02:16:15;;;;;;;4.50;2.97;;;;;;;;;;5114570;28;20481;-70
2022/05/29 02:18:46;;;;;;;3.77;3.27;;;;;;;;;;5114663;28;20500;-70
2022/05/29 02:21:16;;;;;;;4.77;3.63;;;;;;;;;;5114469;28;20476;-71
2022/05/29 02:23:44;;;;;;;7.00;2.93;;;;;;;;;;5114286;28;20453;-70
2022/05/29 02:26:14;;;;;;;6.73;3.50;;;;;;;;;;5114511;28;20450;-71
2022/05/29 02:28:43;;;;;;;5.13;3.60;;;;;;;;;;5114529;28;20444;-71
2022/05/29 02:31:18;;;;;;;5.03;3.33;;;;;;;;;;5114167;28;20473;-71
2022/05/29 02:33:52;;;;;;;4.23;3.50;;;;;;;;;;5114297;28;20457;-70
2022/05/29 02:36:29;;;;;;;4.17;3.37;;;;;;;;;;5114270;28;20489;-70
2022/05/29 02:39:02;;;;;;;5.63;3.27;;;;;;;;;;5114304;28;20816;-70
2022/05/29 02:41:34;;;;;;;6.03;3.60;;;;;;;;;;5114209;28;20986;-70
2022/05/29 02:44:08;;;;;;;3.17;2.87;;;;;;;;;;5113883;28;20935;-70
2022/05/29 02:46:43;;;;;;;5.00;3.83;;;;;;;;;;5114183;28;20813;-70
2022/05/29 02:49:14;;;;;;;4.13;3.60;;;;;;;;;;5114052;27;20445;-70
2022/05/29 02:51:43;;;;;;;5.03;3.53;;;;;;;;;;5114014;27;20857;-70
2022/05/29 02:54:12;;;;;;;3.93;3.53;;;;;;;;;;5113706;28;20450;-71
2022/05/29 02:56:39;;;;;;;5.90;3.47;;;;;;;;;;5113849;28;20504;-71
2022/05/29 02:59:06;;;;;;;4.87;3.20;;;;;;;;;;5113829;28;20845;-71
2022/05/29 03:01:39;;;;;;;6.10;3.70;;;;;;;;;;5114052;28;20472;-71
2022/05/29 03:04:14;;;;;;;6.00;3.87;;;;;;;;;;5113606;28;20956;-70
2022/05/29 03:06:44;;;;;;;3.60;3.00;;;;;;;;;;5113960;28;20437;-70
2022/05/29 03:09:16;;;;;;;5.93;3.77;;;;;;;;;;5113685;28;20934;-70
2022/05/29 03:11:45;;;;;;;5.17;4.00;;;;;;;;;;5113698;28;20841;-70
2022/05/29 03:14:19;;;;;;;4.00;3.20;;;;;;;;;;5113451;28;20453;-70
2022/05/29 03:16:52;;;;;;;6.50;3.40;;;;;;;;;;5112732;28;20485;-70
2022/05/29 03:19:27;;;;;;;4.30;3.73;;;;;;;;;;5113539;28;20979;-70
2022/05/29 03:22:05;;;;;;;4.73;3.33;;;;;;;;;;5113819;28;20941;-70
2022/05/29 03:24:39;;;;;;;4.77;3.40;;;;;;;;;;5113517;28;20450;-70
2022/05/29 03:27:09;;;;;;;4.77;3.40;;;;;;;;;;5113647;28;20846;-70
2022/05/29 03:29:39;;;;;;;4.90;4.10;;;;;;;;;;5113514;28;20847;-70
2022/05/29 03:32:07;;;;;;;4.60;3.57;;;;;;;;;;5113278;28;20926;-70
2022/05/29 03:34:35;;;;;;;4.20;3.60;;;;;;;;;;5113293;28;20468;-70
2022/05/29 03:37:02;;;;;;;4.13;3.07;;;;;;;;;;5113213;28;20485;-71
2022/05/29 03:39:29;;;;;;;3.80;3.07;;;;;;;;;;5113403;28;20922;-71
2022/05/29 03:41:56;;;;;;;5.63;2.63;;;;;;;;;;5113335;28;20454;-71
2022/05/29 03:44:24;;;;;;;5.80;3.60;;;;;;;;;;5113124;28;20465;-70
2022/05/29 03:46:52;;;;;;;3.57;2.70;;;;;;;;;;5113191;28;20442;-71
2022/05/29 03:49:21;;;;;;;5.23;2.90;;;;;;;;;;5113338;28;20449;-70
2022/05/29 03:51:49;;;;;;;10.53;2.90;;;;;;;;;;5113300;28;20449;-70
2022/05/29 03:54:17;;;;;;;6.27;3.30;;;;;;;;;;5113042;28;20445;-70
2022/05/29 03:56:44;;;;;;;3.93;3.53;;;;;;;;;;5113280;28;20488;-70
2022/05/29 03:59:11;;;;;;;4.00;3.23;;;;;;;;;;5113029;28;20563;-70
2022/05/29 04:01:39;;;;;;;5.10;3.00;;;;;;;;;;5113047;28;20474;-70
2022/05/29 04:04:06;;;;;;;3.43;3.13;;;;;;;;;;5112878;28;20833;-70
2022/05/29 04:06:34;;;;;;;3.00;2.70;;;;;;;;;;5113287;28;20441;-70
2022/05/29 04:12:07;;;;;;;4.70;3.13;;;;;;;;;;5113256;28;20430;-70
2022/05/29 04:14:35;;;;;;;4.50;2.83;;;;;;;;;;5112986;28;20453;-71
2022/05/29 04:17:02;;;;;;;4.63;2.40;;;;;;;;;;5112827;28;20859;-71
2022/05/29 04:19:29;;;;;;;5.40;2.70;;;;;;;;;;5112972;28;20446;-71
2022/05/29 04:21:56;;;;;;;8.23;3.83;;;;;;;;;;5113076;28;20454;-71
2022/05/29 04:24:25;;;;;;;7.67;3.10;;;;;;;;;;5112835;28;20457;-71
2022/05/29 04:26:52;;;;;;;3.97;2.53;;;;;;;;;;5113019;28;20441;-71
2022/05/29 04:29:20;;;;;;;2.33;2.13;;;;;;;;;;5116028;28;20445;-71
2022/05/29 04:34:32;;;;;;;3.63;2.60;;;;;;;;;;5116400;28;20412;-71
2022/05/29 04:36:59;;;;;;;3.33;1.83;;;;;;;;;;5116461;28;20492;-71
2022/05/29 04:39:29;;;;;;;5.70;2.80;;;;;;;;;;5116406;27;20473;-71
2022/05/29 04:41:56;;;;;;;4.80;2.27;;;;;;;;;;5116495;28;20457;-71
2022/05/29 04:44:23;;;;;;;3.67;2.20;;;;;;;;;;5116183;28;20457;-71
2022/05/29 04:46:50;;;;;;;3.70;2.10;;;;;;;;;;5116549;28;20441;-71
2022/05/29 04:49:17;;;;;;;4.67;3.00;;;;;;;;;;5116201;28;20460;-71
2022/05/29 04:51:44;;;;;;;3.27;2.20;;;;;;;;;;5116240;28;20469;-71
2022/05/29 04:54:11;;;;;;;6.73;2.50;;;;;;;;;;5115921;28;20450;-71
2022/05/29 04:56:40;;;;;;;1.90;1.70;;;;;;;;;;5116191;28;20481;-71
2022/05/29 04:59:07;;;;;;;4.13;2.53;;;;;;;;;;5116051;28;20456;-71
2022/05/29 05:01:34;;;;;;;2.97;2.53;;;;;;;;;;5116225;28;20992;-71
2022/05/29 05:04:01;;;;;;;9.20;3.30;;;;;;;;;;5115934;28;20449;-71
2022/05/29 05:06:28;;;;;;;7.67;4.57;;;;;;;;;;5116094;28;20438;-71
2022/05/29 05:08:56;;;;;;;9.37;4.70;;;;;;;;;;5115988;28;20450;-71
2022/05/29 05:11:23;;;;;;;8.83;4.77;;;;;;;;;;5115876;28;20885;-71
2022/05/29 05:13:52;;;;;;;10.97;5.57;;;;;;;;;;5115655;28;20457;-71
2022/05/29 05:16:20;;;;;;;6.83;4.10;;;;;;;;;;5115646;28;20517;-71
2022/05/29 05:18:47;;;;;;;7.10;4.00;;;;;;;;;;5116023;28;20465;-71
2022/05/29 05:21:14;;;;;;;5.73;3.00;;;;;;;;;;5115707;28;20465;-70
2022/05/29 05:23:41;;;;;;;4.73;4.03;;;;;;;;;;5115256;27;20461;-71
2022/05/29 05:26:09;;;;;;;5.80;3.33;;;;;;;;;;5115826;27;20446;-70
2022/05/29 05:28:37;;;;;;;5.50;3.53;;;;;;;;;;5115516;27;20445;-70
2022/05/29 05:31:05;;;;;;;11.50;3.47;;;;;;;;;;5115388;28;20477;-70
2022/05/29 05:33:32;;;;;;;5.60;3.40;;;;;;;;;;5115500;28;20446;-71
2022/05/29 05:35:59;;;;;;;5.33;3.80;;;;;;;;;;5115245;28;20464;-70
2022/05/29 05:38:26;;;;;;;5.93;4.63;;;;;;;;;;5115534;28;20452;-70
2022/05/29 05:40:53;;;;;;;10.67;5.40;;;;;;;;;;5114333;28;20474;-70
2022/05/29 05:43:20;;;;;;;10.43;5.10;;;;;;;;;;5115243;27;20464;-70
2022/05/29 05:45:48;;;;;;;4.60;3.93;;;;;;;;;;5115039;28;20842;-70
2022/05/29 05:48:17;;;;;;;6.30;4.27;;;;;;;;;;5115173;28;20544;-70
2022/05/29 05:50:45;;;;;;;8.33;4.77;;;;;;;;;;5114907;28;20512;-70
2022/05/29 05:53:12;;;;;;;8.20;3.30;;;;;;;;;;5115072;28;20945;-70
2022/05/29 05:55:39;;;;;;;6.23;3.63;;;;;;;;;;5114840;28;20472;-71
2022/05/29 05:58:07;;;;;;;7.23;3.93;;;;;;;;;;5114825;28;20488;-70
2022/05/29 06:00:34;;;;;;;8.43;4.10;;;;;;;;;;5115107;28;20481;-70
2022/05/29 06:03:01;;;;;;;5.20;2.90;;;;;;;;;;5114929;28;20449;-70
2022/05/29 06:05:29;;;;;;;7.23;2.87;;;;;;;;;;5114614;28;20452;-70
2022/05/29 06:07:56;;;;;;;6.73;3.00;;;;;;;;;;5115141;28;20442;-70
2022/05/29 06:10:23;;;;;;;7.67;3.27;;;;;;;;;;5114518;28;20469;-70
2022/05/29 06:12:51;;;;;;;4.50;3.20;;;;;;;;;;5114637;28;20461;-70
2022/05/29 06:15:18;;;;;;;7.00;3.53;;;;;;;;;;5114314;28;20441;-70
2022/05/29 06:17:45;;;;;;;5.93;3.23;;;;;;;;;;5114566;28;20486;-70
2022/05/29 06:20:13;;;;;;;3.73;3.13;;;;;;;;;;5114408;28;20842;-70
2022/05/29 06:22:42;;;;;;;4.27;3.17;;;;;;;;;;5114626;27;20449;-70
2022/05/29 06:25:11;;;;;;;4.07;3.47;;;;;;;;;;5114061;28;20454;-70
2022/05/29 06:27:38;;;;;;;5.13;3.00;;;;;;;;;;5114545;28;20453;-70
2022/05/29 06:30:07;;;;;;;5.07;2.77;;;;;;;;;;5114490;28;20469;-70
2022/05/29 06:32:34;;;;;;;2.80;2.10;;;;;;;;;;5112066;28;20457;-70
2022/05/29 06:35:02;;;;;;;2.80;2.50;;;;;;;;;;5108470;28;20458;-70
2022/05/29 06:37:29;;;;;;;3.13;2.80;;;;;;;;;;5092546;28;20482;-70
2022/05/29 06:39:58;;;;;;;4.53;2.93;;;;;;;;;;5091996;28;20499;-71
2022/05/29 06:42:26;;;;;;;4.33;3.10;;;;;;;;;;5092444;28;20465;-70
2022/05/29 06:44:53;;;;;;;8.10;2.70;;;;;;;;;;5092488;28;20447;-70
2022/05/29 06:47:20;;;;;;;3.10;2.80;;;;;;;;;;5092032;28;20442;-70
2022/05/29 06:49:48;;;;;;;3.97;3.17;;;;;;;;;;5092629;28;20466;-70
2022/05/29 06:52:16;;;;;;;3.13;2.70;;;;;;;;;;5091942;28;20503;-70
2022/05/29 06:54:43;;;;;;;5.40;2.83;;;;;;;;;;5091803;28;20454;-71
2022/05/29 06:57:12;;;;;;;3.13;2.50;;;;;;;;;;5092068;28;20511;-71
2022/05/29 07:07:51;;;;;;;3.60;3.20;;;;;;;;;;5092095;28;20434;-70
2022/05/29 07:10:18;;;;;;;5.43;2.80;;;;;;;;;;5091673;28;20477;-70
2022/05/29 07:12:47;;;;;;;3.83;3.13;;;;;;;;;;5091065;28;20836;-71
2022/05/29 07:15:15;;;;;;;3.03;2.60;;;;;;;;;;5091253;28;20935;-70
2022/05/29 07:17:42;;;;;;;4.47;3.30;;;;;;;;;;5091776;28;20489;-70
2022/05/29 07:20:10;;;;;;;5.97;3.60;;;;;;;;;;5091701;28;20481;-70
2022/05/29 07:22:40;;;;;;;8.47;2.90;;;;;;;;;;5092225;28;20793;-70
2022/05/29 07:25:08;;;;;;;7.27;3.57;;;;;;;;;;5091661;28;20553;-70
2022/05/29 07:27:35;;;;;;;5.93;3.37;;;;;;;;;;5091825;28;20454;-71
2022/05/29 07:30:04;;;;;;;3.47;3.07;;;;;;;;;;5091755;28;20814;-70
2022/05/29 07:32:31;;;;;;;8.63;3.20;;;;;;;;;;5091547;28;20446;-71
2022/05/29 07:34:58;;;;;;;13.13;4.20;;;;;;;;;;5091498;28;20454;-71
2022/05/29 07:37:26;;;;;;;9.87;4.30;;;;;;;;;;5091562;28;20490;-70
2022/05/29 07:39:54;;;;;;;4.33;2.50;;;;;;;;;;5091399;28;20483;-71
2022/05/29 07:45:09;;;;;;;4.00;2.90;;;;;;;;;;5091548;28;20422;-70
2022/05/29 07:47:37;;;;;;;6.70;3.27;;;;;;;;;;5091378;28;20451;-70
2022/05/29 07:50:05;;;;;;;4.03;3.50;;;;;;;;;;5091293;28;20475;-71
2022/05/29 07:52:32;;;;;;;6.30;3.40;;;;;;;;;;5112296;28;20456;-70
2022/05/29 07:54:59;;;;;;;3.40;2.90;;;;;;;;;;5112793;28;20452;-71
2022/05/29 07:57:27;;;;;;;5.00;2.87;;;;;;;;;;5111379;28;20997;-70
2022/05/29 07:59:54;;;;;;;4.50;2.80;;;;;;;;;;5113090;28;20473;-70
2022/05/29 08:02:22;;;;;;;6.80;4.20;;;;;;;;;;5113072;28;20449;-70
2022/05/29 08:04:50;;;;;;;6.70;3.00;;;;;;;;;;5116942;28;21014;-70
2022/05/29 08:07:19;;;;;;;3.67;2.60;;;;;;;;;;5116981;28;20445;-70
2022/05/29 08:09:46;;;;;;;2.70;2.50;;;;;;;;;;5117255;28;20476;-70
2022/05/29 08:12:13;;;;;;;5.80;3.07;;;;;;;;;;5117126;28;20449;-70
2022/05/29 08:14:40;;;;;;;8.40;3.73;;;;;;;;;;5116419;28;20453;-70
2022/05/29 08:17:09;;;;;;;5.17;2.60;;;;;;;;;;5117062;28;20484;-70
2022/05/29 08:19:38;;;;;;;7.37;3.03;;;;;;;;;;5117091;28;20453;-70
2022/05/29 08:22:05;;;;;;;7.20;3.37;;;;;;;;;;5116838;28;20958;-70
2022/05/29 08:32:58;;;;;;;7.33;2.40;;;;;;;;;;5116693;28;20421;-70
2022/05/29 08:35:26;;;;;;;7.33;3.00;;;;;;;;;;5116473;28;20441;-70
2022/05/29 08:37:54;;;;;;;8.13;2.67;;;;;;;;;;5116591;28;20492;-70
2022/05/29 08:40:21;;;;;;;3.83;2.50;;;;;;;;;;5116363;28;20989;-70
2022/05/29 08:42:48;;;;;;;4.20;2.10;;;;;;;;;;5116481;28;20465;-70
2022/05/29 08:45:18;;;;;;;4.90;2.67;;;;;;;;;;5116213;28;20478;-70
2022/05/29 08:48:15;;;;;;;5.23;3.13;;;;;;;;;;5116645;28;20454;-70
2022/05/29 08:50:50;;;;;;;3.30;2.83;;;;;;;;;;5116474;28;20512;-70
2022/05/29 08:53:25;;;;;;;7.30;4.23;;;;;;;;;;5116220;28;20460;-70
2022/05/29 08:55:54;;;;;;;6.83;3.07;;;;;;;;;;5116328;28;20461;-71
2022/05/29 08:58:25;;;;;;;3.30;2.70;;;;;;;;;;5116134;28;20481;-70
2022/05/29 09:00:57;;;;;;;5.93;3.27;;;;;;;;;;5116217;28;20476;-70
2022/05/29 09:03:39;;;;;;;6.33;3.20;;;;;;;;;;5116004;28;20812;-70
2022/05/29 09:06:09;;;;;;;4.70;3.53;;;;;;;;;;5111103;28;20457;-71
2022/05/29 09:08:38;;;;;;;3.93;2.60;;;;;;;;;;5113450;28;20548;-71
2022/05/29 09:11:08;;;;;;;6.83;3.27;;;;;;;;;;5114007;28;20840;-71
2022/05/29 09:13:37;;;;;;;3.60;3.30;;;;;;;;;;5114481;28;20484;-71
2022/05/29 09:16:08;;;;;;;6.00;3.30;;;;;;;;;;5113795;28;20442;-71
2022/05/29 09:18:36;;;;;;;5.93;3.83;;;;;;;;;;5113961;27;20485;-70
2022/05/29 09:21:05;;;;;;;3.67;2.97;;;;;;;;;;5114238;28;20931;-71
2022/05/29 09:23:35;;;;;;;7.63;3.33;;;;;;;;;;5114300;28;20445;-70
2022/05/29 09:26:06;;;;;;;10.40;4.20;;;;;;;;;;5114380;28;20946;-71
2022/05/29 09:28:35;;;;;;;5.53;3.50;;;;;;;;;;5115038;28;20454;-71
2022/05/29 09:31:07;;;;;;;4.60;3.10;;;;;;;;;;5114326;28;20571;-71
2022/05/29 09:33:34;;;;;;;4.20;3.13;;;;;;;;;;5115320;28;20874;-70
2022/05/29 09:36:03;;;;;;;4.73;4.23;;;;;;;;;;5115627;28;20446;-71
2022/05/29 09:38:34;;;;;;;12.03;4.50;;;;;;;;;;5115408;28;20484;-70
2022/05/29 09:41:06;;;;;;;5.87;3.40;;;;;;;;;;5112594;28;20469;-71
2022/05/29 09:43:33;;;;;;;5.27;3.23;;;;;;;;;;5113786;28;20547;-71
2022/05/29 09:46:18;;;;;;;6.43;3.47;;;;;;;;;;5114515;28;20458;-71
2022/05/29 09:51:39;;;;;;;6.17;2.93;;;;;;;;;;5115077;28;20447;-71
2022/05/29 09:54:07;;;;;;;4.63;3.30;;;;;;;;;;5114794;28;20946;-71
2022/05/29 09:56:36;;;;;;;6.57;3.30;;;;;;;;;;5115150;28;20449;-71
2022/05/29 09:59:04;;;;;;;4.50;3.03;;;;;;;;;;5114936;28;21134;-71
2022/05/29 10:01:34;;;;;;;4.57;3.80;;;;;;;;;;5114579;28;20495;-71
2022/05/29 10:04:02;;;;;;;6.90;3.20;;;;;;;;;;5114744;28;20503;-71
2022/05/29 10:06:32;;;;;;;5.40;3.80;;;;;;;;;;5114740;28;20518;-71
2022/05/29 10:09:11;;;;;;;7.07;3.83;;;;;;;;;;5111797;28;20469;-71
2022/05/29 10:11:41;;;;;;;6.53;3.70;;;;;;;;;;5113218;28;20469;-71
2022/05/29 10:14:21;;;;;;;5.00;3.13;;;;;;;;;;5112662;28;20544;-71
2022/05/29 10:16:49;;;;;;;3.63;3.27;;;;;;;;;;5113271;28;20450;-71
2022/05/29 10:19:32;;;;;;;5.27;3.63;;;;;;;;;;5112837;28;20523;-71
2022/05/29 10:21:59;;;;;;;6.20;4.07;;;;;;;;;;5112982;27;20456;-71
2022/05/29 10:24:31;;;;;;;3.10;2.80;;;;;;;;;;5108921;28;20462;-71
2022/05/29 10:27:01;;;;;;;7.30;3.50;;;;;;;;;;5093500;28;20451;-70
2022/05/29 10:29:29;;;;;;;7.27;3.70;;;;;;;;;;5093515;28;20443;-71
2022/05/29 10:31:56;;;;;;;4.70;3.50;;;;;;;;;;5093978;28;20446;-71
2022/05/29 10:34:25;;;;;;;7.17;3.77;;;;;;;;;;5093924;28;20963;-71
2022/05/29 10:36:52;;;;;;;4.20;3.77;;;;;;;;;;5094009;28;20454;-71
2022/05/29 10:39:21;;;;;;;5.93;4.77;;;;;;;;;;5093638;28;20486;-71
2022/05/29 10:41:49;;;;;;;6.57;3.53;;;;;;;;;;5093653;28;20485;-71
2022/05/29 10:44:37;;;;;;;4.10;3.23;;;;;;;;;;5093658;28;20454;-71
2022/05/29 10:47:05;;;;;;;5.50;3.27;;;;;;;;;;5093709;28;20462;-71
2022/05/29 10:49:34;;;;;;;6.00;3.47;;;;;;;;;;5093683;28;20923;-71
2022/05/29 10:52:25;;;;;;;4.63;3.73;;;;;;;;;;5093490;28;20481;-71
2022/05/29 10:55:03;;;;;;;3.60;3.03;;;;;;;;;;5083151;28;20477;-71
2022/05/29 10:57:37;;;;;;;7.37;4.17;;;;;;;;;;5093557;28;20813;-70
2022/05/29 11:00:09;;;;;;;9.23;4.60;;;;;;;;;;5093423;28;20467;-71
2022/05/29 11:05:39;;;;;;;4.80;4.17;;;;;;;;;;5093343;28;20423;-71
2022/05/29 11:08:11;;;;;;;25.17;19.17;;;;;;;;;;5093390;28;20450;-71
2022/05/29 11:10:50;;;;;;;13.60;10.23;;;;;;;;;;5093156;28;20482;-71
2022/05/29 11:13:24;;;;;;;21.60;15.90;;;;;;;;;;5093439;28;20565;-71
2022/05/29 11:15:56;;;;;;;19.17;15.63;;;;;;;;;;5092809;28;20461;-71
2022/05/29 11:18:44;;;;;;;10.00;7.87;;;;;;;;;;5093188;28;20486;-71
2022/05/29 11:21:16;;;;;;;17.00;12.73;;;;;;;;;;5089726;28;20568;-71
2022/05/29 11:23:58;;;;;;;6.53;4.80;;;;;;;;;;5093626;28;20466;-71
2022/05/29 11:26:31;;;;;;;6.67;4.13;;;;;;;;;;5093140;28;20455;-71
2022/05/29 11:29:04;;;;;;;5.67;3.87;;;;;;;;;;5093196;28;20500;-71
2022/05/29 11:31:44;;;;;;;4.20;3.37;;;;;;;;;;5093219;28;20470;-71
2022/05/29 11:34:22;;;;;;;8.77;3.70;;;;;;;;;;5092852;28;20442;-71
2022/05/29 11:36:55;;;;;;;12.60;5.10;;;;;;;;;;5093192;28;20465;-71
2022/05/29 11:39:28;;;;;;;15.53;6.10;;;;;;;;;;5096570;28;20486;-71
2022/05/29 11:41:59;;;;;;;4.30;3.37;;;;;;;;;;5097420;28;20545;-71
2022/05/29 11:44:30;;;;;;;4.43;3.63;;;;;;;;;;5097091;28;20462;-71
2022/05/29 11:52:34;;;;;;;6.00;3.20;;;;;;;;;;5097158;28;20496;-71
2022/05/29 11:55:03;;;;;;;4.70;2.90;;;;;;;;;;5097050;28;20827;-71
2022/05/29 11:57:33;;;;;;;3.73;2.93;;;;;;;;;;5096997;28;20830;-71
2022/05/29 12:00:03;;;;;;;7.27;3.60;;;;;;;;;;5096760;28;20495;-71
2022/05/29 12:02:34;;;;;;;6.63;3.27;;;;;;;;;;5096918;28;20824;-71
2022/05/29 12:05:11;;;;;;;6.80;3.20;;;;;;;;;;5096834;28;20454;-71
2022/05/29 12:07:41;;;;;;;5.20;3.23;;;;;;;;;;5096868;28;20451;-71
2022/05/29 12:10:11;;;;;;;5.27;3.60;;;;;;;;;;5096615;28;20466;-71
2022/05/29 12:12:42;;;;;;;4.37;3.73;;;;;;;;;;5096785;28;20465;-71
2022/05/29 12:15:11;;;;;;;4.60;3.43;;;;;;;;;;5095880;28;20446;-71
2022/05/29 12:17:43;;;;;;;6.63;3.90;;;;;;;;;;5096659;28;20450;-71
2022/05/29 12:20:12;;;;;;;5.77;3.60;;;;;;;;;;5096223;28;20490;-71
2022/05/29 12:22:40;;;;;;;5.70;2.97;;;;;;;;;;5096470;28;20450;-71
2022/05/29 12:25:15;;;;;;;6.50;3.30;;;;;;;;;;5096128;28;20810;-71
2022/05/29 12:27:43;;;;;;;5.53;3.00;;;;;;;;;;5096561;28;20473;-71
2022/05/29 12:30:13;;;;;;;5.77;3.23;;;;;;;;;;5096208;28;20963;-71
2022/05/29 12:32:41;;;;;;;9.80;3.70;;;;;;;;;;5096421;28;20446;-71
2022/05/29 12:35:11;;;;;;;6.20;4.23;;;;;;;;;;5096128;28;20856;-71
2022/05/29 12:37:53;;;;;;;6.00;4.20;;;;;;;;;;5096307;28;20822;-71
2022/05/29 12:40:29;;;;;;;7.07;3.57;;;;;;;;;;5096024;28;20982;-71
2022/05/29 12:43:15;;;;;;;3.47;2.70;;;;;;;;;;5096094;28;21005;-71
2022/05/29 12:45:45;;;;;;;4.00;2.97;;;;;;;;;;5095774;28;20446;-71
2022/05/29 12:48:33;;;;;;;5.77;3.80;;;;;;;;;;5095737;28;20939;-71
2022/05/29 12:51:21;;;;;;;3.80;2.90;;;;;;;;;;5078227;28;20482;-71
2022/05/29 12:54:03;;;;;;;9.93;3.50;;;;;;;;;;5095815;28;20451;-71
2022/05/29 12:56:45;;;;;;;10.10;3.10;;;;;;;;;;5096043;28;20923;-71
2022/05/29 12:59:21;;;;;;;5.93;3.00;;;;;;;;;;5094193;28;20490;-71
2022/05/29 13:02:07;;;;;;;3.53;2.63;;;;;;;;;;5095735;28;20445;-71
2022/05/29 13:04:44;;;;;;;5.10;3.87;;;;;;;;;;5095595;28;20948;-71
2022/05/29 13:07:20;;;;;;;5.93;2.60;;;;;;;;;;5095487;28;20443;-71
2022/05/29 13:10:06;;;;;;;4.77;3.47;;;;;;;;;;5095481;28;20516;-71
2022/05/29 13:12:34;;;;;;;3.17;2.73;;;;;;;;;;5095671;28;20450;-71
2022/05/29 13:15:03;;;;;;;4.40;2.87;;;;;;;;;;5095264;28;20494;-71
2022/05/29 13:17:32;;;;;;;6.17;3.20;;;;;;;;;;5095390;28;20517;-71
2022/05/29 13:20:01;;;;;;;4.50;2.50;;;;;;;;;;5095200;28;20546;-71
2022/05/29 13:22:49;;;;;;;4.77;2.40;;;;;;;;;;5095224;28;20454;-71
2022/05/29 13:25:17;;;;;;;3.50;2.53;;;;;;;;;;5094992;28;20462;-71
2022/05/29 13:27:45;;;;;;;5.07;2.83;;;;;;;;;;5095507;28;20457;-71
2022/05/29 13:30:42;;;;;;;3.40;3.10;;;;;;;;;;5095036;28;20475;-71
2022/05/29 13:33:27;;;;;;;5.87;3.53;;;;;;;;;;5095059;28;20450;-71
2022/05/29 13:35:55;;;;;;;7.93;3.50;;;;;;;;;;5095142;28;20952;-71
2022/05/29 13:38:41;;;;;;;3.77;2.90;;;;;;;;;;5094789;28;20458;-71
2022/05/29 13:41:12;;;;;;;4.63;2.50;;;;;;;;;;5094782;28;20475;-71
2022/05/29 13:43:40;;;;;;;3.00;2.70;;;;;;;;;;5094668;28;20541;-71
2022/05/29 13:46:09;;;;;;;5.53;2.67;;;;;;;;;;5094785;28;20458;-71
2022/05/29 13:48:56;;;;;;;3.70;2.70;;;;;;;;;;5094956;28;20554;-71
2022/05/29 13:51:27;;;;;;;13.57;4.60;;;;;;;;;;5094674;28;20474;-71
2022/05/29 13:53:59;;;;;;;3.67;2.53;;;;;;;;;;5094588;28;20538;-71
2022/05/29 13:56:47;;;;;;;4.40;2.40;;;;;;;;;;5094734;28;20459;-71
2022/05/29 14:04:52;;;;;;;7.30;3.20;;;;;;;;;;5094494;28;20436;-71
2022/05/29 14:07:24;;;;;;;6.73;3.17;;;;;;;;;;5094394;28;20451;-71
2022/05/29 14:10:18;;;;;;;5.73;3.10;;;;;;;;;;5094240;28;20473;-71
2022/05/29 14:12:51;;;;;;;5.57;3.07;;;;;;;;;;5069944;28;20447;-71
2022/05/29 14:15:31;;;;;;;5.20;2.30;;;;;;;;;;5094081;28;20447;-71
2022/05/29 14:17:59;;;;;;;5.87;2.93;;;;;;;;;;5094120;28;20443;-71
2022/05/29 14:20:30;;;;;;;5.80;2.30;;;;;;;;;;5094024;28;20611;-71
2022/05/29 14:23:05;;;;;;;3.97;2.10;;;;;;;;;;5094059;28;20451;-71
2022/05/29 14:25:41;;;;;;;1.73;1.40;;;;;;;;;;5093895;28;20970;-71
2022/05/29 14:28:14;;;;;;;1.77;1.43;;;;;;;;;;5094029;28;20553;-71
2022/05/29 14:30:59;;;;;;;1.93;1.30;;;;;;;;;;5093603;28;20486;-71
2022/05/29 14:33:32;;;;;;;1.93;1.27;;;;;;;;;;5093841;28;20461;-70
2022/05/29 14:36:11;;;;;;;2.10;1.60;;;;;;;;;;5094900;28;20916;-71
2022/05/29 14:38:47;;;;;;;2.50;1.63;;;;;;;;;;5112425;28;20449;-71
2022/05/29 14:41:16;;;;;;;2.93;1.50;;;;;;;;;;5113806;27;20882;-71
2022/05/29 14:43:43;;;;;;;2.10;1.50;;;;;;;;;;5113495;28;20548;-71
2022/05/29 14:46:17;;;;;;;6.00;1.70;;;;;;;;;;5113758;28;20549;-70
2022/05/29 14:48:55;;;;;;;4.13;1.57;;;;;;;;;;5114099;28;20957;-71
2022/05/29 14:51:26;;;;;;;1.73;1.33;;;;;;;;;;5113805;28;20483;-71
2022/05/29 14:53:56;;;;;;;2.07;1.63;;;;;;;;;;5113683;28;20450;-71
2022/05/29 14:56:31;;;;;;;12.53;1.60;;;;;;;;;;5113940;28;20454;-71
2022/05/29 14:59:14;;;;;;;3.50;2.07;;;;;;;;;;5113691;28;20851;-71
2022/05/29 15:01:43;;;;;;;6.70;1.70;;;;;;;;;;5113772;27;20465;-71
2022/05/29 15:04:10;;;;;;;3.97;1.70;;;;;;;;;;5113643;28;20464;-71
2022/05/29 15:10:30;;;;;;;1.90;1.70;;;;;;;;;;5113888;28;20934;-70
2022/05/29 15:12:21;;;;;;;7.93;2.80;;;;;;;;;;5113204;28;20437;-71
2022/05/29 15:14:48;;;;;;;2.50;2.30;;;;;;;;;;5113487;28;20528;-71
2022/05/29 15:17:23;;;;;;;4.30;2.43;;;;;;;;;;5113474;28;20454;-70
2022/05/29 15:25:26;;;;;;;2.80;1.93;;;;;;;;;;5055782;28;20909;-71
2022/05/29 15:27:55;;;;;;;3.60;2.03;;;;;;;;;;5113524;28;20448;-71
2022/05/29 15:30:23;;;;;;;3.43;2.17;;;;;;;;;;5113463;28;20466;-71
2022/05/29 15:32:54;;;;;;;2.57;2.37;;;;;;;;;;5113425;28;20457;-71
2022/05/29 15:35:23;;;;;;;5.20;2.03;;;;;;;;;;5113173;28;20452;-71
2022/05/29 15:37:57;;;;;;;3.40;3.10;;;;;;;;;;5113373;28;20815;-70
2022/05/29 15:40:32;;;;;;;3.60;2.40;;;;;;;;;;5113262;28;20486;-70
2022/05/29 15:43:06;;;;;;;2.90;2.50;;;;;;;;;;5113241;28;20472;-70
2022/05/29 15:45:46;;;;;;;4.50;2.70;;;;;;;;;;5113106;28;20553;-71
2022/05/29 15:48:34;;;;;;;9.80;3.17;;;;;;;;;;5113199;28;20831;-70
2022/05/29 15:51:07;;;;;;;7.40;3.13;;;;;;;;;;5113244;28;20465;-70
2022/05/29 15:53:42;;;;;;;4.57;4.10;;;;;;;;;;5113141;28;20441;-71
2022/05/29 15:56:14;;;;;;;6.30;3.90;;;;;;;;;;5111602;28;20502;-72